createdAt,value
2022-10-31T00:02:41.002Z,2.55
2022-10-31T00:05:46.254Z,2.58
2022-10-31T00:08:55.443Z,2.20
2022-10-31T00:12:02.414Z,2.25
2022-10-31T00:15:07.921Z,2.50
2022-10-31T00:18:14.671Z,2.17
2022-10-31T00:21:21.334Z,2.43
2022-10-31T00:24:26.062Z,2.33
2022-10-31T00:27:31.065Z,2.28
2022-10-31T00:30:36.126Z,2.53
2022-10-31T00:33:43.016Z,2.58
2022-10-31T00:36:47.956Z,2.38
2022-10-31T00:39:54.762Z,2.35
2022-10-31T00:42:59.950Z,2.50
2022-10-31T00:46:04.973Z,2.10
2022-10-31T00:49:13.072Z,2.97
2022-10-31T00:52:18.279Z,2.50
2022-10-31T00:55:23.292Z,2.53
2022-10-31T00:58:28.122Z,2.40
2022-10-31T01:01:34.767Z,2.50
2022-10-31T01:04:41.718Z,2.28
2022-10-31T01:07:47.049Z,2.28
2022-10-31T01:11:02.403Z,2.92
2022-10-31T01:14:07.098Z,2.53
2022-10-31T01:17:11.973Z,2.43
2022-10-31T01:20:20.461Z,2.13
2022-10-31T01:23:25.636Z,3.17
2022-10-31T01:26:32.044Z,2.63
2022-10-31T01:29:36.739Z,2.93
2022-10-31T01:32:41.468Z,2.97
2022-10-31T01:35:48.066Z,2.30
2022-10-31T01:38:53.710Z,2.00
2022-10-31T01:41:58.895Z,2.10
2022-10-31T01:45:05.301Z,2.40
2022-10-31T01:48:18.825Z,2.10
2022-10-31T01:51:30.812Z,2.47
2022-10-31T01:54:38.703Z,2.70
2022-10-31T01:57:50.193Z,2.27
2022-10-31T02:01:01.764Z,2.47
2022-10-31T02:04:11.079Z,2.07
2022-10-31T02:07:23.753Z,3.00
2022-10-31T02:10:33.435Z,2.17
2022-10-31T02:13:38.423Z,2.33
2022-10-31T02:16:43.045Z,2.00
2022-10-31T02:19:59.129Z,2.23
2022-10-31T02:23:37.085Z,2.47
2022-10-31T02:26:58.142Z,2.23
2022-10-31T02:30:17.286Z,2.60
2022-10-31T02:33:28.810Z,2.35
2022-10-31T02:36:42.055Z,2.30
2022-10-31T02:39:55.036Z,2.77
2022-10-31T02:43:08.142Z,2.23
2022-10-31T02:46:20.824Z,2.47
2022-10-31T02:49:35.081Z,2.58
2022-10-31T02:52:40.098Z,2.53
2022-10-31T02:55:58.211Z,2.30
2022-10-31T02:59:08.090Z,2.47
2022-10-31T03:02:38.617Z,2.77
2022-10-31T03:05:56.112Z,2.67
2022-10-31T03:09:09.811Z,2.77
2022-10-31T03:12:18.435Z,2.70
2022-10-31T03:15:28.203Z,2.20
2022-10-31T03:18:39.478Z,2.58
2022-10-31T03:21:49.742Z,2.50
2022-10-31T03:24:58.186Z,2.33
2022-10-31T03:28:05.879Z,2.70
2022-10-31T03:31:12.872Z,2.40
2022-10-31T03:34:21.038Z,2.50
2022-10-31T03:37:30.139Z,2.20
2022-10-31T03:40:37.889Z,2.43
2022-10-31T03:43:49.050Z,2.43
2022-10-31T03:46:54.249Z,2.47
2022-10-31T03:50:02.010Z,2.90
2022-10-31T03:53:15.094Z,2.47
2022-10-31T03:56:25.625Z,2.53
2022-10-31T03:59:35.173Z,2.97
2022-10-31T04:02:45.496Z,2.47
2022-10-31T04:05:52.492Z,2.42
2022-10-31T04:09:05.146Z,2.20
2022-10-31T04:12:12.046Z,2.50
2022-10-31T04:15:17.141Z,2.60
2022-10-31T04:18:21.932Z,2.40
2022-10-31T04:21:30.827Z,2.63
2022-10-31T04:24:37.217Z,2.40
2022-10-31T04:27:42.006Z,2.47
2022-10-31T04:30:47.395Z,2.87
2022-10-31T04:33:52.676Z,2.30
2022-10-31T04:36:57.797Z,2.73
2022-10-31T04:40:07.636Z,2.40
2022-10-31T04:43:12.417Z,2.40
2022-10-31T04:46:17.435Z,2.50
2022-10-31T04:49:22.038Z,2.37
2022-10-31T04:52:26.455Z,2.33
2022-10-31T04:55:33.384Z,2.93
2022-10-31T04:58:39.849Z,2.50
2022-10-31T05:01:45.133Z,2.33
2022-10-31T05:04:49.982Z,2.27
2022-10-31T05:07:57.411Z,2.60
2022-10-31T05:11:05.264Z,2.07
2022-10-31T05:14:10.292Z,2.10
2022-10-31T05:17:15.464Z,2.07
2022-10-31T05:20:22.837Z,2.27
2022-10-31T05:23:27.943Z,2.23
2022-10-31T05:26:34.213Z,2.40
2022-10-31T05:29:39.404Z,2.10
2022-10-31T05:32:46.067Z,2.20
2022-10-31T05:35:54.233Z,2.37
2022-10-31T05:38:59.442Z,2.00
2022-10-31T05:42:06.858Z,2.27
2022-10-31T05:45:15.070Z,2.20
2022-10-31T05:48:19.921Z,2.03
2022-10-31T05:51:25.166Z,2.63
2022-10-31T05:54:31.863Z,2.40
2022-10-31T05:57:38.202Z,3.07
2022-10-31T06:00:45.798Z,2.30
2022-10-31T06:03:50.855Z,2.60
2022-10-31T06:06:58.896Z,2.30
2022-10-31T06:10:03.784Z,3.00
2022-10-31T06:13:10.293Z,2.90
2022-10-31T06:16:15.534Z,2.63
2022-10-31T06:19:22.244Z,2.90
2022-10-31T06:22:28.863Z,3.10
2022-10-31T06:25:34.835Z,2.23
2022-10-31T06:28:41.008Z,2.30
2022-10-31T06:31:45.669Z,2.47
2022-10-31T06:34:51.744Z,2.30
2022-10-31T06:37:56.799Z,2.57
2022-10-31T06:41:06.031Z,2.60
2022-10-31T06:44:12.413Z,2.30
2022-10-31T06:47:16.968Z,2.13
2022-10-31T06:50:21.773Z,2.30
2022-10-31T06:53:28.235Z,2.33
2022-10-31T06:56:33.231Z,2.47
2022-10-31T06:59:39.791Z,2.73
2022-10-31T07:02:44.958Z,2.23
2022-10-31T07:05:49.652Z,2.40
2022-10-31T07:08:54.995Z,2.60
2022-10-31T07:11:59.992Z,3.10
2022-10-31T07:15:07.838Z,3.07
2022-10-31T07:18:14.092Z,2.90
2022-10-31T07:21:19.478Z,3.10
2022-10-31T07:24:25.287Z,3.33
2022-10-31T07:27:31.415Z,3.87
2022-10-31T07:30:38.324Z,3.30
2022-10-31T07:33:45.516Z,3.23
2022-10-31T07:36:50.110Z,3.97
2022-10-31T07:39:55.864Z,3.05
2022-10-31T07:43:02.080Z,4.10
2022-10-31T07:46:10.647Z,4.10
2022-10-31T07:49:15.495Z,3.90
2022-10-31T07:52:20.156Z,3.83
2022-10-31T07:55:24.890Z,3.60
2022-10-31T07:58:29.839Z,4.15
2022-10-31T08:01:35.725Z,3.70
2022-10-31T08:04:40.419Z,4.60
2022-10-31T08:07:45.057Z,3.88
2022-10-31T08:10:50.979Z,4.20
2022-10-31T08:13:55.797Z,4.40
2022-10-31T08:17:03.027Z,2.85
2022-10-31T08:20:09.197Z,4.55
2022-10-31T08:23:15.492Z,3.63
2022-10-31T08:26:20.457Z,3.72
2022-10-31T08:29:25.867Z,3.42
2022-10-31T08:32:32.476Z,4.07
2022-10-31T08:35:40.231Z,3.45
2022-10-31T08:38:45.442Z,3.30
2022-10-31T08:41:50.160Z,3.75
2022-10-31T08:44:57.135Z,3.97
2022-10-31T08:48:05.743Z,3.88
2022-10-31T08:51:12.023Z,3.65
2022-10-31T08:54:17.225Z,3.40
2022-10-31T08:57:22.230Z,3.60
2022-10-31T09:00:27.702Z,3.63
2022-10-31T09:03:35.098Z,3.65
2022-10-31T09:06:46.424Z,3.45
2022-10-31T09:10:02.230Z,3.95
2022-10-31T09:13:10.451Z,3.42
2022-10-31T09:16:17.589Z,3.83
2022-10-31T09:19:24.370Z,3.67
2022-10-31T09:22:29.359Z,4.22
2022-10-31T09:25:35.886Z,3.40
2022-10-31T09:28:42.592Z,3.88
2022-10-31T09:31:47.940Z,3.53
2022-10-31T09:34:54.619Z,3.72
2022-10-31T09:38:02.191Z,3.53
2022-10-31T09:41:19.285Z,3.42
2022-10-31T09:44:29.972Z,3.15
2022-10-31T09:47:49.196Z,3.20
2022-10-31T09:51:03.288Z,3.70
2022-10-31T09:54:14.409Z,2.80
2022-10-31T09:57:25.530Z,2.70
2022-10-31T10:00:30.681Z,3.22
2022-10-31T10:03:41.090Z,3.08
2022-10-31T10:06:50.936Z,3.67
2022-10-31T10:09:56.256Z,3.28
2022-10-31T10:13:20.170Z,2.95
2022-10-31T10:16:39.027Z,3.47
2022-10-31T10:19:57.731Z,4.05
2022-10-31T10:23:31.190Z,3.15
2022-10-31T10:26:40.485Z,3.50
2022-10-31T10:29:55.981Z,3.70
2022-10-31T10:33:08.957Z,3.35
2022-10-31T10:36:19.444Z,3.38
2022-10-31T10:39:34.683Z,3.60
2022-10-31T10:42:56.983Z,3.38
2022-10-31T10:46:33.062Z,3.28
2022-10-31T10:49:46.168Z,3.65
2022-10-31T10:53:00.521Z,3.50
2022-10-31T10:56:17.765Z,3.22
2022-10-31T10:59:25.235Z,3.05
2022-10-31T11:02:33.950Z,3.28
2022-10-31T11:05:42.232Z,3.50
2022-10-31T11:08:48.889Z,3.60
2022-10-31T11:11:56.006Z,3.67
2022-10-31T11:15:03.039Z,3.80
2022-10-31T11:18:08.428Z,3.50
2022-10-31T11:21:24.773Z,4.10
2022-10-31T11:24:30.684Z,4.15
2022-10-31T11:27:36.907Z,4.18
2022-10-31T11:30:48.836Z,4.07
2022-10-31T11:33:59.635Z,3.97
2022-10-31T11:37:12.555Z,4.50
2022-10-31T11:40:23.253Z,4.40
2022-10-31T11:43:31.099Z,4.13
2022-10-31T11:46:40.207Z,4.32
2022-10-31T11:49:46.739Z,3.80
2022-10-31T11:52:52.239Z,3.35
2022-10-31T11:56:15.611Z,4.05
2022-10-31T11:59:34.434Z,3.70
2022-10-31T12:02:41.757Z,3.67
2022-10-31T12:05:48.951Z,4.03
2022-10-31T12:08:53.798Z,3.70
2022-10-31T12:12:20.781Z,3.67
2022-10-31T12:15:33.697Z,3.53
2022-10-31T12:19:00.920Z,2.80
2022-10-31T12:22:11.891Z,2.90
2022-10-31T12:25:29.705Z,3.03
2022-10-31T12:29:05.558Z,3.50
2022-10-31T12:32:24.657Z,3.47
2022-10-31T12:35:43.180Z,3.10
2022-10-31T12:39:06.450Z,3.30
2022-10-31T12:42:21.151Z,3.22
2022-10-31T12:45:49.057Z,3.00
2022-10-31T12:49:22.208Z,3.08
2022-10-31T12:52:40.612Z,2.90
2022-10-31T12:55:58.156Z,4.22
2022-10-31T12:59:08.091Z,4.00
2022-10-31T13:02:23.012Z,3.60
2022-10-31T13:05:34.062Z,3.88
2022-10-31T13:08:45.481Z,3.08
2022-10-31T13:11:54.056Z,3.17
2022-10-31T13:15:03.009Z,3.75
2022-10-31T13:18:16.166Z,3.70
2022-10-31T13:21:26.211Z,3.88
2022-10-31T13:24:35.489Z,3.38
2022-10-31T13:27:46.011Z,3.17
2022-10-31T13:30:50.973Z,3.42
2022-10-31T13:33:59.443Z,3.72
2022-10-31T13:37:24.035Z,4.25
2022-10-31T13:40:40.707Z,3.95
2022-10-31T13:44:01.813Z,3.70
2022-10-31T13:47:30.238Z,3.03
2022-10-31T13:50:36.347Z,3.65
2022-10-31T13:53:47.428Z,4.05
2022-10-31T13:56:53.602Z,3.67
2022-10-31T14:00:01.144Z,3.55
2022-10-31T14:03:06.292Z,3.67
2022-10-31T14:06:12.823Z,3.53
2022-10-31T14:09:33.704Z,4.00
2022-10-31T14:12:39.890Z,4.70
2022-10-31T14:15:44.966Z,3.72
2022-10-31T14:18:51.052Z,2.90
2022-10-31T14:21:53.744Z,3.33
2022-10-31T14:24:57.806Z,3.13
2022-10-31T14:28:02.481Z,3.65
2022-10-31T14:31:37.739Z,3.67
2022-10-31T14:34:43.462Z,3.03
2022-10-31T14:38:05.599Z,3.00
2022-10-31T14:41:35.252Z,2.72
2022-10-31T14:45:01.380Z,3.15
2022-10-31T14:48:17.223Z,3.33
2022-10-31T14:51:22.390Z,2.95
2022-10-31T14:54:30.181Z,3.20
2022-10-31T14:57:37.571Z,3.55
2022-10-31T15:00:40.334Z,2.85
2022-10-31T15:04:10.255Z,3.20
2022-10-31T15:07:14.521Z,2.88
2022-10-31T15:10:22.905Z,2.38
2022-10-31T15:13:26.974Z,2.80
2022-10-31T15:16:35.236Z,2.97
2022-10-31T15:19:38.677Z,3.10
2022-10-31T15:22:41.371Z,3.63
2022-10-31T15:25:46.609Z,2.88
2022-10-31T15:29:08.305Z,3.30
2022-10-31T15:32:23.262Z,3.75
2022-10-31T15:35:27.532Z,3.35
2022-10-31T15:38:31.241Z,3.30
2022-10-31T15:41:36.892Z,2.95
2022-10-31T15:44:44.500Z,2.97
2022-10-31T15:47:50.198Z,2.97
2022-10-31T15:50:56.958Z,3.80
2022-10-31T15:54:00.902Z,2.88
2022-10-31T15:57:03.893Z,2.90
2022-10-31T16:00:22.753Z,3.35
2022-10-31T16:03:28.009Z,3.40
2022-10-31T16:06:31.701Z,3.08
2022-10-31T16:09:34.411Z,3.83
2022-10-31T16:12:39.142Z,3.47
2022-10-31T16:15:59.329Z,3.45
2022-10-31T16:19:15.309Z,3.03
2022-10-31T16:22:23.576Z,3.38
2022-10-31T16:25:29.410Z,3.75
2022-10-31T16:28:39.984Z,3.33
2022-10-31T16:31:44.959Z,3.08
2022-10-31T16:34:47.641Z,4.93
2022-10-31T16:37:50.315Z,4.10
2022-10-31T16:40:54.188Z,3.45
2022-10-31T16:43:56.919Z,3.72
2022-10-31T16:47:13.980Z,3.72
2022-10-31T16:50:19.429Z,3.85
2022-10-31T16:53:22.554Z,3.53
2022-10-31T16:56:30.188Z,3.83
2022-10-31T16:59:34.217Z,3.20
2022-10-31T17:02:38.911Z,4.28
2022-10-31T17:05:41.702Z,3.70
2022-10-31T17:08:44.345Z,3.80
2022-10-31T17:11:50.061Z,3.97
2022-10-31T17:14:56.501Z,4.30
2022-10-31T17:18:00.837Z,4.75
2022-10-31T17:21:06.120Z,4.70
2022-10-31T17:24:13.010Z,5.38
2022-10-31T17:27:15.676Z,5.13
2022-10-31T17:30:19.582Z,5.93
2022-10-31T17:33:23.902Z,6.18
2022-10-31T17:36:27.238Z,5.32
2022-10-31T17:39:29.899Z,5.60
2022-10-31T17:42:33.365Z,4.78
2022-10-31T17:45:35.967Z,5.53
2022-10-31T17:48:40.609Z,5.07
2022-10-31T17:51:43.250Z,4.93
2022-10-31T17:54:46.120Z,5.00
2022-10-31T17:57:48.768Z,5.95
2022-10-31T18:00:51.567Z,5.50
2022-10-31T18:03:55.773Z,5.68
2022-10-31T18:06:58.412Z,4.90
2022-10-31T18:10:01.477Z,4.35
2022-10-31T18:13:04.511Z,5.30
2022-10-31T18:16:10.719Z,4.07
2022-10-31T18:19:16.670Z,5.43
2022-10-31T18:22:19.355Z,4.28
2022-10-31T18:25:22.045Z,4.60
2022-10-31T18:28:24.718Z,4.80
2022-10-31T18:31:27.725Z,5.10
2022-10-31T18:34:31.728Z,6.80
2022-10-31T18:37:34.360Z,7.03
2022-10-31T18:40:37.301Z,6.13
2022-10-31T18:43:40.025Z,7.43
2022-10-31T18:46:42.664Z,6.22
2022-10-31T18:49:46.910Z,6.10
2022-10-31T18:52:49.566Z,6.20
2022-10-31T18:55:52.180Z,6.15
2022-10-31T18:58:54.874Z,6.95
2022-10-31T19:01:57.680Z,6.82
2022-10-31T19:05:01.973Z,7.70
2022-10-31T19:08:04.893Z,7.50
2022-10-31T19:11:09.719Z,6.97
2022-10-31T19:14:14.847Z,8.07
2022-10-31T19:17:17.471Z,7.60
2022-10-31T19:20:21.439Z,7.68
2022-10-31T19:23:24.121Z,7.47
2022-10-31T19:26:27.695Z,6.80
2022-10-31T19:29:30.412Z,6.43
2022-10-31T19:32:38.136Z,6.78
2022-10-31T19:35:44.677Z,7.72
2022-10-31T19:38:50.938Z,8.10
2022-10-31T19:41:56.377Z,6.82
2022-10-31T19:45:01.497Z,10.07
2022-10-31T19:48:06.202Z,8.23
2022-10-31T19:51:14.657Z,7.35
2022-10-31T19:54:19.444Z,5.90
2022-10-31T19:57:41.966Z,7.15
2022-10-31T20:00:49.547Z,9.43
2022-10-31T20:03:54.680Z,7.07
2022-10-31T20:07:01.073Z,4.85
2022-10-31T20:10:06.433Z,5.15
2022-10-31T20:13:11.835Z,4.65
2022-10-31T20:16:18.137Z,4.55
2022-10-31T20:19:24.638Z,4.88
2022-10-31T20:22:30.967Z,5.22
2022-10-31T20:25:36.400Z,4.60
2022-10-31T20:28:43.673Z,4.65
2022-10-31T20:31:50.293Z,5.28
2022-10-31T20:34:55.162Z,5.50
2022-10-31T20:38:01.428Z,4.70
2022-10-31T20:41:08.017Z,5.68
2022-10-31T20:44:12.710Z,5.60
2022-10-31T20:47:20.570Z,4.88
2022-10-31T20:50:29.869Z,5.20
2022-10-31T20:53:35.972Z,6.28
2022-10-31T20:56:42.197Z,5.43
2022-10-31T20:59:47.755Z,5.45
2022-10-31T21:02:52.244Z,5.30
2022-10-31T21:05:58.209Z,5.22
2022-10-31T21:09:04.300Z,4.60
2022-10-31T21:12:09.213Z,5.25
2022-10-31T21:15:17.544Z,3.90
2022-10-31T21:18:24.246Z,4.30
2022-10-31T21:21:32.757Z,4.30
2022-10-31T21:24:39.669Z,4.53
2022-10-31T21:27:44.749Z,4.43
2022-10-31T21:30:52.171Z,4.20
2022-10-31T21:33:57.776Z,4.32
2022-10-31T21:37:02.746Z,3.42
2022-10-31T21:40:11.030Z,4.38
2022-10-31T21:43:16.019Z,3.42
2022-10-31T21:46:22.319Z,4.05
2022-10-31T21:49:26.936Z,3.83
2022-10-31T21:52:33.741Z,3.13
2022-10-31T21:55:38.662Z,3.78
2022-10-31T21:58:43.344Z,3.30
2022-10-31T22:01:48.280Z,4.07
2022-10-31T22:04:52.868Z,3.88
2022-10-31T22:07:57.933Z,3.83
2022-10-31T22:11:07.906Z,3.35
2022-10-31T22:14:15.403Z,3.78
2022-10-31T22:17:20.496Z,3.72
2022-10-31T22:20:26.457Z,3.88
2022-10-31T22:23:31.407Z,4.57
2022-10-31T22:26:40.887Z,3.42
2022-10-31T22:29:46.198Z,4.05
2022-10-31T22:32:51.305Z,4.60
2022-10-31T22:35:56.093Z,3.60
2022-10-31T22:39:02.324Z,4.38
2022-10-31T22:42:13.045Z,3.80
2022-10-31T22:45:18.220Z,4.32
2022-10-31T22:48:23.114Z,4.20
2022-10-31T22:51:29.374Z,3.72
2022-10-31T22:54:34.635Z,3.70
2022-10-31T22:57:41.550Z,3.78
2022-10-31T23:00:46.526Z,4.57
2022-10-31T23:03:52.628Z,3.70
2022-10-31T23:06:57.813Z,3.42
2022-10-31T23:10:02.332Z,5.43
2022-10-31T23:13:25.115Z,6.53
2022-10-31T23:16:29.968Z,6.53
2022-10-31T23:19:34.872Z,6.13
2022-10-31T23:22:39.421Z,6.90
2022-10-31T23:26:03.377Z,5.43
2022-10-31T23:29:09.930Z,5.78
2022-10-31T23:32:19.818Z,7.45
2022-10-31T23:35:24.704Z,6.53
2022-10-31T23:38:31.370Z,5.67
2022-10-31T23:41:36.547Z,4.63
2022-10-31T23:44:43.204Z,5.27
2022-10-31T23:47:48.293Z,4.57
2022-10-31T23:50:53.209Z,4.87
2022-10-31T23:53:58.062Z,4.57
2022-10-31T23:57:03.426Z,4.10
